Flight Track Log - Related Links

Times and Time Zones

All times are in EDT time to prevent confusion due to time zone crossing. See the SWA2166 flight status page for this flight to view local times or setup timezone preferences in your user account.

Time Position Orientation Groundspeed Altitude Reporting Facility
EDT Latitude Longitude Course Direction KTS km/h feet Rate Location/Type
Tue 21:35:01 29.6717 -95.2269 44° Northeast 264 489 3.900  Level Houston Center
Tue 21:36:07 29.7550 -95.2322 357° North 288 533 6.500 2.929 Climbing Houston Center
Tue 21:37:08 29.8442 -95.2358 358° North 310 575 10.100 3.639 Climbing Houston Center
Tue 21:38:09 29.9425 -95.2419 357° North 344 637 13.900 3.639 Climbing Houston Center
Tue 21:39:10 30.0478 -95.2486 357° North 374 692 17.500 3.756 Climbing Houston Center
Tue 21:40:12 30.1517 -95.1997 22° Northeast 414 766 21.600 3.561 Climbing Houston Center
Tue 21:41:13 30.2461 -95.1275 33° Northeast 410 760 24.800 2.754 Climbing Houston Center
Tue 21:42:14 30.3461 -95.0514 33° Northeast 426 789 27.200 2.311 Climbing Houston Center
Tue 21:43:15 30.4564 -94.9658 34° Northeast 445 824 29.500 2.115 Climbing Houston Center
Tue 21:44:16 30.5664 -94.8806 34° Northeast 468 867 31.500 2.164 Climbing Houston Center
Tue 21:45:17 30.7011 -94.7781 33° Northeast 480 888 33.900 2.311 Climbing Houston Center
Tue 21:46:18 30.8139 -94.6911 34° Northeast 486 900 36.200 1.902 Climbing Houston Center
Tue 21:47:20 30.9236 -94.6061 34° Northeast 480 888 37.800 1.415 Climbing Houston Center
Tue 21:48:21 31.0358 -94.5189 34° Northeast 488 904 39.100 1.279 Climbing Houston Center
Tue 21:49:22 31.1467 -94.4331 34° Northeast 485 898 40.400 870 Climbing Houston Center
Tue 21:50:32 31.2800 -94.3289 34° Northeast 486 900 41.000 277 Climbing Fort Worth Center
Tue 21:51:32 31.3906 -94.2400 34° Northeast 486 900 41.000  Level Fort Worth Center
Tue 21:52:32 31.5072 -94.1508 33° Northeast 486 900 41.000  Level Fort Worth Center
Tue 21:53:32 31.6217 -94.0589 34° Northeast 486 900 41.000  Level Fort Worth Center
Tue 21:54:32 31.7364 -93.9742 32° Northeast 486 900 41.000  Level Fort Worth Center
Tue 21:55:32 31.8508 -93.8842 34° Northeast 491 909 41.000  Level Fort Worth Center
Tue 21:56:32 31.9631 -93.7942 34° Northeast 491 909 41.000  Level Fort Worth Center
Tue 21:57:32 32.0753 -93.7064 34° Northeast 491 909 41.000  Level Fort Worth Center
Tue 21:58:32 32.1822 -93.5769 46° Northeast 491 909 41.000  Level Fort Worth Center
Tue 21:59:32 32.2700 -93.4456 52° Northeast 491 909 41.000  Level Fort Worth Center
Tue 22:00:32 32.3492 -93.3142 54° Northeast 491 909 41.000  Level Fort Worth Center
Tue 22:01:32 32.4344 -93.1825 52° Northeast 497 921 41.000  Level Fort Worth Center
Tue 22:02:32 32.5156 -93.0506 54° Northeast 497 921 41.000  Level Fort Worth Center
Tue 22:03:32 32.5986 -92.9183 53° Northeast 497 921 41.000  Level Fort Worth Center
Tue 22:04:32 32.6794 -92.7883 54° Northeast 497 921 41.000  Level Fort Worth Center
Tue 22:05:32 32.7600 -92.6533 55° Northeast 497 921 41.000  Level Fort Worth Center
Tue 22:07:20 32.9033 -92.4183 54° Northeast 507 938 41.000  Level Memphis Center
Tue 22:08:20 32.9847 -92.2889 53° Northeast 496 919 41.000  Level Memphis Center
Tue 22:09:20 33.0642 -92.1544 55° Northeast 496 919 41.000  Level Memphis Center
Tue 22:10:20 33.1472 -92.0197 54° Northeast 496 919 41.000  Level Memphis Center
Tue 22:11:20 33.2136 -91.8992 57° Northeast 491 909 41.000  Level Memphis Center
Tue 22:12:20 33.3114 -91.7517 52° Northeast 497 921 41.000  Level Memphis Center
Tue 22:13:20 33.3772 -91.6308 57° Northeast 497 921 41.000  Level Memphis Center
Tue 22:14:20 33.4600 -91.4978 53° Northeast 497 921 41.000  Level Memphis Center
Tue 22:15:20 33.5383 -91.3592 56° Northeast 497 921 41.000  Level Memphis Center
Tue 22:16:20 33.6186 -91.2253 54° Northeast 497 921 41.000  Level Memphis Center
Tue 22:17:20 33.7011 -91.0889 54° Northeast 497 921 41.000  Level Memphis Center
Tue 22:18:20 33.7811 -90.9544 54° Northeast 497 921 41.000  Level Memphis Center
Tue 22:19:20 33.8672 -90.8050 55° Northeast 497 921 41.000  Level Memphis Center
Tue 22:20:20 33.9428 -90.6728 55° Northeast 497 921 41.000  Level Memphis Center
Tue 22:21:20 34.0222 -90.5375 55° Northeast 492 911 41.000  Level Memphis Center
Tue 22:22:20 34.0997 -90.4047 55° Northeast 486 900 41.000  Level Memphis Center
Tue 22:23:20 34.1769 -90.2717 55° Northeast 486 900 41.000  Level Memphis Center
Tue 22:24:20 34.2539 -90.1361 55° Northeast 486 900 41.000  Level Memphis Center
Tue 22:25:20 34.3286 -90.0050 55° Northeast 480 888 41.000  Level Memphis Center
Tue 22:26:20 34.4033 -89.8714 56° Northeast 475 880 41.000  Level Memphis Center
Tue 22:27:20 34.4758 -89.7400 56° Northeast 475 880 41.000  Level Memphis Center
Tue 22:28:20 34.5481 -89.6056 57° Northeast 475 880 41.000  Level Memphis Center
Tue 22:29:20 34.6244 -89.4739 55° Northeast 475 880 41.000  Level Memphis Center
Tue 22:30:20 34.6986 -89.3417 56° Northeast 475 880 41.000  Level Memphis Center
Tue 22:31:20 34.7725 -89.2092 56° Northeast 475 880 41.000  Level Memphis Center
Tue 22:32:20 34.8381 -89.0919 56° Northeast 470 871 41.000  Level Memphis Center
Tue 22:33:20 34.9119 -88.9617 55° Northeast 470 871 41.000  Level Memphis Center
Tue 22:34:20 34.9853 -88.8314 55° Northeast 470 871 41.000  Level Memphis Center
Tue 22:35:20 35.0589 -88.6981 56° Northeast 470 871 41.000  Level Memphis Center
Tue 22:36:20 35.1300 -88.5644 57° Northeast 468 867 41.000  Level Memphis Center
Tue 22:37:20 35.2053 -88.4408 53° Northeast 468 867 41.000  Level Memphis Center
Tue 22:38:20 35.2783 -88.3069 56° Northeast 468 867 41.000  Level Memphis Center
Tue 22:39:20 35.3489 -88.1756 57° Northeast 468 867 41.000  Level Memphis Center
Tue 22:40:20 35.4153 -88.0336 60° Northeast 474 877 41.000  Level Memphis Center
Tue 22:41:20 35.4900 -87.9042 55° Northeast 469 869 41.000  Level Memphis Center
Tue 22:42:20 35.5661 -87.7564 58° Northeast 462 856 41.000  Level Memphis Center
Tue 22:43:20 35.6383 -87.6236 56° Northeast 462 856 41.000  Level Memphis Center
Tue 22:44:20 35.7064 -87.4936 57° Northeast 457 847 41.000  Level Memphis Center
Tue 22:45:20 35.7783 -87.3633 56° Northeast 457 847 41.000  Level Memphis Center
Tue 22:46:20 35.8481 -87.2300 57° Northeast 452 837 41.000  Level Memphis Center
Tue 22:47:20 35.9156 -87.0994 57° Northeast 452 837 41.000  Level Memphis Center
Tue 22:48:20 35.9850 -86.9683 57° Northeast 452 837 41.000  Level Memphis Center
Tue 22:49:20 36.0542 -86.8344 57° Northeast 457 847 41.000  Level Memphis Center
Tue 22:50:20 36.1233 -86.6981 58° Northeast 462 856 41.000  Level Memphis Center
Tue 22:51:20 36.1794 -86.5514 65° Northeast 462 856 41.000  Level Memphis Center
Tue 22:52:20 36.2267 -86.4000 69° East 462 856 41.000  Level Memphis Center
Tue 22:53:20 36.2761 -86.2483 68° East 462 856 41.000  Level Memphis Center
Tue 22:54:20 36.3253 -86.1042 67° East 462 856 41.000  Level Memphis Center
Tue 22:55:20 36.3722 -85.9522 69° East 462 856 41.000  Level Memphis Center
Tue 22:57:43 36.4814 -85.6086 68° East 470 871 41.000  Level Indianapolis Center
Tue 22:58:44 36.5292 -85.4575 68° East 469 869 41.000  Level Indianapolis Center
Tue 22:59:46 36.5769 -85.3036 69° East 474 877 41.000  Level Indianapolis Center
Tue 23:00:47 36.6236 -85.1494 69° East 475 880 41.000  Level Indianapolis Center
Tue 23:01:48 36.6719 -84.9942 69° East 478 885 41.000  Level Indianapolis Center
Tue 23:02:49 36.7189 -84.8372 69° East 482 893 41.000  Level Indianapolis Center
Tue 23:03:51 36.7667 -84.6828 69° East 478 885 41.000  Level Indianapolis Center
Tue 23:04:52 36.8211 -84.5025 69° East 476 882 41.000  Level Indianapolis Center
Tue 23:05:53 36.8672 -84.3486 69° East 476 882 41.000  Level Indianapolis Center
Tue 23:06:54 36.9150 -84.1964 69° East 473 875 41.000  Level Indianapolis Center
Tue 23:07:56 36.9600 -84.0422 70° East 473 875 41.000  Level Indianapolis Center
Tue 23:08:57 37.0050 -83.8878 70° East 474 877 41.000  Level Indianapolis Center
Tue 23:09:58 37.0525 -83.7342 69° East 471 872 41.000  Level Indianapolis Center
Tue 23:10:59 37.0975 -83.5781 70° East 474 877 41.000  Level Indianapolis Center
Tue 23:12:00 37.1419 -83.4208 70° East 476 882 41.000  Level Indianapolis Center
Tue 23:13:02 37.1875 -83.2644 70° East 476 882 41.000  Level Indianapolis Center
Tue 23:14:03 37.2325 -83.1081 70° East 473 875 41.000  Level Indianapolis Center
Tue 23:15:04 37.2781 -82.9514 70° East 472 874 41.000  Level Indianapolis Center
Tue 23:16:05 37.3239 -82.7961 70° East 471 872 41.000  Level Indianapolis Center
Tue 23:17:06 37.3769 -82.6169 70° East 468 867 41.000  Level Indianapolis Center
Tue 23:18:08 37.4217 -82.4633 70° East 466 863 41.000  Level Indianapolis Center
Tue 23:19:09 37.4653 -82.3097 70° East 465 861 41.000  Level Indianapolis Center
Tue 23:20:10 37.5103 -82.1575 70° East 463 858 41.000  Level Indianapolis Center
Tue 23:21:11 37.5528 -82.0042 71° East 463 858 41.000  Level Indianapolis Center
Tue 23:22:12 37.5972 -81.8514 70° East 463 858 41.000  Level Indianapolis Center
Tue 23:23:14 37.6397 -81.6964 71° East 465 861 41.000  Level Indianapolis Center
Tue 23:24:15 37.6831 -81.5419 70° East 466 863 41.000  Level Indianapolis Center
Tue 23:25:16 37.7300 -81.3794 70° East 471 872 41.000  Level Indianapolis Center
Tue 23:25:43 37.7472 -81.3044 74° East 468 867 41.000  Level Washington Center
Tue 23:26:43 37.7869 -81.1681 70° East 442 819 41.000  Level Washington Center
Tue 23:27:43 37.8322 -80.9978 71° East 449 832 41.000  Level Washington Center
Tue 23:28:43 37.8767 -80.8483 69° East 449 832 41.000  Level Washington Center
Tue 23:29:43 37.9167 -80.6906 72° East 454 840 41.000  Level Washington Center
Tue 23:30:43 37.9586 -80.5381 71° East 454 840 41.000  Level Washington Center
Tue 23:31:43 38.0003 -80.3881 71° East 454 840 41.000  Level Washington Center
Tue 23:32:43 38.0392 -80.2453 71° East 454 840 41.000  Level Washington Center
Tue 23:33:43 38.0806 -80.0922 71° East 454 840 41.000  Level Washington Center
Tue 23:34:43 38.1217 -79.9364 71° East 454 840 41.000  Level Washington Center
Tue 23:35:43 38.1628 -79.7803 71° East 454 840 41.000  Level Washington Center
Tue 23:36:43 38.2061 -79.6108 72° East 459 850 41.000  Level Washington Center
Tue 23:37:43 38.2486 -79.4547 71° East 454 840 41.000  Level Washington Center
Tue 23:38:43 38.2869 -79.3006 72° East 454 840 41.000  Level Washington Center
Tue 23:39:43 38.3292 -79.1464 71° East 454 840 41.000 -850 Level Washington Center
Tue 23:40:43 38.3625 -79.0050 73° East 454 840 39.300 -2.067 Descending Washington Center
Tue 23:41:42 38.3958 -78.8528 74° East 454 840 36.900 -2.700 Descending Washington Center
Tue 23:42:43 38.4333 -78.6981 73° East 454 840 33.900 -3.100 Descending Washington Center
Tue 23:43:42 38.4728 -78.5461 72° East 449 832 30.700 -2.950 Descending Washington Center
Tue 23:44:43 38.5097 -78.3908 73° East 454 840 28.000 -2.628 Descending Washington Center
Tue 23:45:43 38.5486 -78.2411 72° East 454 840 25.400 -2.550 Descending Washington Center
Tue 23:46:43 38.5831 -78.0936 73° East 442 819 22.900 -2.450 Descending Washington Center
Tue 23:47:43 38.6169 -77.9564 72° East 428 793 20.500 -1.950 Descending Washington Center
Tue 23:48:43 38.6428 -77.8164 77° East 406 752 19.000 -756 Descending Washington Center
Tue 23:49:42 38.6514 -77.6786 85° East 400 740 19.000 -54 Level Washington Center
Tue 23:50:34 38.6667 -77.5500 81° East 394 729 18.900 -1.358 Descending Potomac TRACON
Tue 23:51:28 38.6667 -77.4167 90° East 382 708 16.600 -1.611 Descending Potomac TRACON
Tue 23:52:22 38.6833 -77.3000 80° East 378 700 16.000 -1.056 Descending Potomac TRACON
Tue 23:53:16 38.6833 -77.1833 90° East 368 681 14.700 -1.905 Descending Potomac TRACON
Tue 23:54:28 38.7000 -77.0333 82° East 368 681 12.000 -2.000 Descending Potomac TRACON
Tue 23:55:10 38.7500 -76.9833 38° Northeast 334 618 10.900 -1.444 Descending Potomac TRACON
Tue 23:56:16 38.8500 -76.9500 15° North 293 542 9.400 -1.476 Descending Potomac TRACON
Tue 23:57:16 38.9167 -76.9000 30° Northeast 280 518 7.800 -1.750 Descending Potomac TRACON
Tue 23:58:16 39.0000 -76.8667 17° North 289 536 5.900 -1.682 Descending Potomac TRACON
Tue 23:59:28 39.0833 -76.8667 360° North 270 501 4.100 -1.200 Descending Potomac TRACON
Wed 00:00:16 39.1333 -76.8833 346° North 238 441 3.500 -889 Descending Potomac TRACON
Wed 00:01:16 39.1833 -76.8667 14° North 239 443 2.500 -900 Descending Potomac TRACON
Wed 00:02:16 39.1833 -76.8000 90° East 200 370 1.700 -810 Descending Potomac TRACON
Wed 00:03:22 39.1833 -76.7333 90° East 154 285 800 -818 Descending Potomac TRACON
Wed 00:05:00 39.1667 -76.6667 99° East  Level FlightAware Approximate
Wed 00:12:00 39.1754 -76.6683 99° East  Level Estimated
Wed 00:13:00 39.1754 -76.6683 99° East  Level Estimated
Wed 00:14:00 39.1754 -76.6683 99° East  Level Estimated

Login

Don't have an account? Register now (free) for customized features, flight alerts, and more!